Time;durP1;ratioP1;P1;durP2;ratioP2;P2;SDS_P1;SDS_P2;PMS_P1;PMS_P2;Temp;Humidity;BMP_temperature;BMP_pressure;BME280_temperature;BME280_humidity;BME280_pressure;Samples;Min_cycle;Max_cycle;Signal;HPM_P1;HPM_P2
2022/06/08 00:02:10;;;;;;;13.77;8.10;;;;;;;20.85;100.00;100737.88;5114659;28;20046;-76
2022/06/08 00:04:56;;;;;;;12.65;7.85;;;;;;;20.64;100.00;100738.28;5116404;28;20087;-77
2022/06/08 00:07:42;;;;;;;11.02;8.13;;;;;;;20.57;100.00;100735.13;5100440;28;20023;-75
2022/06/08 00:10:28;;;;;;;10.25;7.65;;;;;;;20.98;100.00;100728.25;5116527;28;20030;-76
2022/06/08 00:13:14;;;;;;;11.63;7.30;;;;;;;20.97;100.00;100717.72;5100141;28;20491;-76
2022/06/08 00:16:01;;;;;;;9.88;7.70;;;;;;;20.85;100.00;100727.25;5115699;28;20027;-76
2022/06/08 00:18:47;;;;;;;10.93;7.88;;;;;;;20.57;100.00;100720.97;5100175;28;20019;-76
2022/06/08 00:21:35;;;;;;;14.05;8.07;;;;;;;20.62;100.00;100727.72;5100998;28;20031;-77
2022/06/08 00:24:21;;;;;;;10.77;7.55;;;;;;;20.69;100.00;100728.25;5100363;28;20363;-76
2022/06/08 00:27:07;;;;;;;12.65;8.00;;;;;;;21.05;100.00;100726.94;5100821;28;20028;-76
2022/06/08 00:29:53;;;;;;;17.15;9.55;;;;;;;20.50;100.00;100714.28;5114425;28;20345;-76
2022/06/08 00:32:39;;;;;;;13.55;8.82;;;;;;;20.91;100.00;100704.72;5113644;28;20031;-76
2022/06/08 00:35:25;;;;;;;12.60;10.02;;;;;;;20.78;100.00;100701.06;5114198;28;20096;-75
2022/06/08 00:38:11;;;;;;;12.43;9.27;;;;;;;21.13;100.00;100699.84;5099764;28;20030;-77
2022/06/08 00:41:20;;;;;;;12.45;9.48;;;;;;;20.82;100.00;100711.44;5100598;28;20023;-77
2022/06/08 00:44:11;;;;;;;11.88;9.15;;;;;;;20.51;100.00;100710.69;5100724;28;20032;-76
2022/06/08 00:47:00;;;;;;;13.25;9.32;;;;;;;20.66;100.00;100696.47;5099864;28;20027;-77
2022/06/08 00:49:52;;;;;;;13.20;9.10;;;;;;;20.78;100.00;100695.75;5114128;28;20054;-77
2022/06/08 00:52:38;;;;;;;12.30;8.50;;;;;;;20.79;100.00;100702.78;5100248;28;20398;-76
2022/06/08 00:55:27;;;;;;;13.68;8.98;;;;;;;20.46;100.00;100702.09;5098923;28;20046;-76
2022/06/08 00:58:25;;;;;;;12.02;8.98;;;;;;;20.40;100.00;100697.13;5100543;28;20019;-77
2022/06/08 01:01:11;;;;;;;13.52;10.35;;;;;;;20.44;100.00;100694.22;5114692;28;20418;-76
2022/06/08 01:04:11;;;;;;;13.90;10.10;;;;;;;20.07;100.00;100688.38;5114201;28;20059;-77
2022/06/08 01:06:58;;;;;;;15.88;10.43;;;;;;;20.15;100.00;100686.19;5100108;28;20444;-77
2022/06/08 01:09:45;;;;;;;13.55;9.15;;;;;;;20.03;100.00;100681.53;5113795;28;20056;-76
2022/06/08 01:12:31;;;;;;;16.92;9.90;;;;;;;20.25;100.00;100682.91;5114858;28;20038;-76
2022/06/08 01:15:22;;;;;;;13.48;9.27;;;;;;;20.27;100.00;100685.47;5115455;28;20020;-76
2022/06/08 01:18:09;;;;;;;13.10;9.43;;;;;;;20.19;100.00;100688.59;5114762;28;20359;-76
2022/06/08 01:21:22;;;;;;;13.07;8.90;;;;;;;20.04;100.00;100684.09;5114721;28;20028;-76
2022/06/08 01:24:11;;;;;;;14.85;8.63;;;;;;;20.33;100.00;100680.66;5111552;28;20050;-75
2022/06/08 01:27:14;;;;;;;14.35;10.50;;;;;;;20.40;100.00;100674.03;5113471;28;20043;-76
2022/06/08 01:30:12;;;;;;;16.83;11.50;;;;;;;20.30;100.00;100670.22;5113753;28;20042;-76
2022/06/08 01:33:30;;;;;;;19.38;11.85;;;;;;;20.04;100.00;100657.50;5113862;28;20081;-76
2022/06/08 01:36:48;;;;;;;19.90;13.73;;;;;;;20.38;100.00;100662.63;5113694;28;20016;-77
2022/06/08 01:39:53;;;;;;;19.25;12.90;;;;;;;20.27;100.00;100664.19;5072795;28;20044;-76
2022/06/08 01:42:51;;;;;;;22.80;12.60;;;;;;;20.23;100.00;100660.88;5114509;28;20024;-77
2022/06/08 01:45:46;;;;;;;20.08;12.75;;;;;;;20.51;100.00;100658.31;5113530;28;20019;-76
2022/06/08 01:48:57;;;;;;;21.27;13.18;;;;;;;20.13;100.00;100670.31;5113039;28;20031;-75
2022/06/08 01:51:50;;;;;;;18.02;12.38;;;;;;;20.16;100.00;100670.13;5114116;28;20107;-76
2022/06/08 01:54:44;;;;;;;14.68;11.40;;;;;;;20.20;100.00;100676.13;5113281;28;20089;-77
2022/06/08 01:57:56;;;;;;;16.25;11.63;;;;;;;20.45;100.00;100666.63;5114836;28;20031;-77
2022/06/08 02:00:47;;;;;;;19.27;12.02;;;;;;;20.39;100.00;100674.13;5118181;28;20454;-77
2022/06/08 02:03:46;;;;;;;20.92;13.18;;;;;;;20.53;100.00;100668.88;5103599;28;20031;-73
2022/06/08 02:06:52;;;;;;;18.67;11.73;;;;;;;20.50;100.00;100671.69;5116562;28;20084;-73
2022/06/08 02:09:48;;;;;;;18.00;12.32;;;;;;;20.39;100.00;100676.78;5116549;28;20024;-73
2022/06/08 02:12:37;;;;;;;18.63;11.82;;;;;;;20.30;100.00;100678.19;5116302;28;20122;-73
2022/06/08 02:15:31;;;;;;;15.15;11.27;;;;;;;20.40;100.00;100678.50;5117417;28;20066;-73
2022/06/08 02:18:24;;;;;;;15.30;11.20;;;;;;;20.06;100.00;100686.69;5116330;28;20027;-72
2022/06/08 02:21:26;;;;;;;19.63;11.10;;;;;;;19.99;100.00;100680.84;5117390;28;20024;-72
2022/06/08 02:24:18;;;;;;;17.30;11.82;;;;;;;20.16;100.00;100690.53;5116516;28;20380;-72
2022/06/08 02:27:29;;;;;;;17.30;11.48;;;;;;;20.20;100.00;100692.97;5116877;28;20208;-73
2022/06/08 02:30:19;;;;;;;14.32;11.57;;;;;;;20.16;100.00;100688.75;5102351;28;20042;-73
2022/06/08 02:36:39;;;;;;;13.23;9.73;;;;;;;19.95;100.00;100691.72;5117737;28;20031;-72
2022/06/08 02:39:35;;;;;;;14.30;9.82;;;;;;;19.79;100.00;100683.78;5103255;28;20452;-73
2022/06/08 02:42:25;;;;;;;12.90;9.40;;;;;;;20.15;100.00;100679.06;5101792;28;20115;-72
2022/06/08 02:45:16;;;;;;;12.95;9.85;;;;;;;20.04;100.00;100673.47;5102913;28;20029;-71
2022/06/08 02:48:05;;;;;;;12.38;9.18;;;;;;;20.27;100.00;100681.03;5116653;28;20024;-72
2022/06/08 02:50:54;;;;;;;16.50;10.00;;;;;;;20.17;100.00;100668.34;5117133;28;20042;-72
2022/06/08 02:54:02;;;;;;;16.63;9.57;;;;;;;19.97;100.00;100658.78;5115614;28;20074;-72
2022/06/08 02:57:02;;;;;;;15.85;9.25;;;;;;;19.86;100.00;100657.69;5102545;28;20031;-72
2022/06/08 02:59:59;;;;;;;12.90;9.32;;;;;;;20.21;100.00;100669.88;5096078;28;20023;-73
2022/06/08 03:02:57;;;;;;;13.02;9.35;;;;;;;20.04;100.00;100669.94;5116745;28;20027;-72
2022/06/08 03:05:50;;;;;;;11.43;9.35;;;;;;;20.24;100.00;100681.19;5116804;28;20031;-74
2022/06/08 03:08:41;;;;;;;12.25;8.70;;;;;;;20.18;100.00;100678.03;5116355;28;20084;-72
2022/06/08 03:11:35;;;;;;;13.32;9.43;;;;;;;19.58;100.00;100684.09;5116554;28;20031;-72
2022/06/08 03:14:21;;;;;;;16.30;9.50;;;;;;;19.67;100.00;100687.09;5101933;28;20085;-72
2022/06/08 03:17:08;;;;;;;14.25;10.02;;;;;;;19.67;100.00;100695.06;5115370;28;20031;-72
2022/06/08 03:19:54;;;;;;;12.32;10.15;;;;;;;19.67;100.00;100700.41;5115763;28;20020;-73
2022/06/08 03:22:39;;;;;;;12.68;9.95;;;;;;;19.73;100.00;100705.34;5116176;28;20509;-73
2022/06/08 03:25:26;;;;;;;17.50;10.77;;;;;;;20.03;100.00;100713.44;5115413;28;20057;-73
2022/06/08 03:28:13;;;;;;;16.13;11.32;;;;;;;20.05;100.00;100715.06;5101240;28;20038;-73
2022/06/08 03:30:59;;;;;;;15.63;11.55;;;;;;;19.91;100.00;100714.13;5115315;28;20054;-72
2022/06/08 03:33:45;;;;;;;14.43;10.43;;;;;;;19.86;100.00;100710.88;5116680;28;20028;-74
2022/06/08 03:36:34;;;;;;;23.02;11.90;;;;;;;19.92;100.00;100708.72;5115218;28;20030;-72
2022/06/08 03:39:20;;;;;;;18.35;12.60;;;;;;;20.05;100.00;100707.09;5115331;28;20435;-72
2022/06/08 03:42:06;;;;;;;16.63;11.88;;;;;;;20.00;100.00;100705.63;5100907;28;20092;-74
2022/06/08 03:44:52;;;;;;;18.75;11.68;;;;;;;20.19;100.00;100716.97;5116375;28;20341;-73
2022/06/08 03:47:50;;;;;;;13.60;10.95;;;;;;;19.99;100.00;100709.25;5115600;28;20028;-73
2022/06/08 03:50:36;;;;;;;16.85;11.75;;;;;;;20.32;100.00;100710.00;5101512;28;20102;-73
2022/06/08 03:53:30;;;;;;;17.80;11.60;;;;;;;20.41;100.00;100714.84;5115302;28;20032;-73
2022/06/08 03:56:18;;;;;;;16.58;11.40;;;;;;;20.40;100.00;100716.63;5115380;28;20027;-74
2022/06/08 03:59:04;;;;;;;16.50;10.88;;;;;;;20.63;100.00;100717.94;5101127;28;20019;-73
2022/06/08 04:01:50;;;;;;;18.40;11.77;;;;;;;20.88;100.00;100718.22;5099501;28;20439;-73
2022/06/08 04:04:37;;;;;;;16.95;11.73;;;;;;;20.79;100.00;100727.63;5099986;28;20031;-73
2022/06/08 04:07:23;;;;;;;17.55;11.30;;;;;;;20.90;100.00;100725.16;5113940;28;20028;-73
2022/06/08 04:10:10;;;;;;;17.33;11.73;;;;;;;21.15;100.00;100721.91;5099545;28;20045;-72
2022/06/08 04:12:56;;;;;;;20.05;10.88;;;;;;;21.23;100.00;100720.50;5114694;28;20027;-74
2022/06/08 04:15:42;;;;;;;12.68;9.45;;;;;;;21.61;100.00;100720.78;5115921;28;20034;-73
2022/06/08 04:18:28;;;;;;;15.18;10.23;;;;;;;21.90;100.00;100730.53;5115225;28;20107;-72
2022/06/08 04:21:15;;;;;;;12.60;9.60;;;;;;;21.58;100.00;100729.00;5099050;28;20031;-72
2022/06/08 04:24:01;;;;;;;12.95;9.82;;;;;;;21.48;100.00;100730.50;5114967;28;20027;-73
2022/06/08 04:26:47;;;;;;;17.67;10.20;;;;;;;21.26;100.00;100738.13;5114308;28;20036;-73
2022/06/08 04:29:33;;;;;;;16.55;9.70;;;;;;;21.41;100.00;100727.38;5114141;28;20092;-72
2022/06/08 04:32:19;;;;;;;12.57;9.80;;;;;;;21.16;100.00;100721.84;5115482;28;20118;-72
2022/06/08 04:35:05;;;;;;;14.95;9.38;;;;;;;21.44;100.00;100719.19;5112888;28;20368;-72
2022/06/08 04:37:52;;;;;;;15.05;9.68;;;;;;;21.53;100.00;100729.28;5114398;28;20099;-72
2022/06/08 04:40:38;;;;;;;12.60;10.27;;;;;;;21.52;100.00;100732.91;5114602;28;20102;-72
2022/06/08 04:43:24;;;;;;;15.20;9.10;;;;;;;21.80;100.00;100734.72;5113017;28;20027;-72
2022/06/08 04:46:15;;;;;;;16.75;9.95;;;;;;;21.85;100.00;100733.47;5114389;28;20028;-73
2022/06/08 04:49:01;;;;;;;15.75;9.05;;;;;;;21.90;100.00;100741.19;5113885;28;20039;-72
2022/06/08 04:51:46;;;;;;;12.43;8.18;;;;;;;21.83;100.00;100737.19;5115188;28;20030;-73
2022/06/08 04:54:32;;;;;;;14.10;9.90;;;;;;;21.74;100.00;100730.63;5114078;28;20059;-73
2022/06/08 04:57:18;;;;;;;15.02;8.90;;;;;;;21.52;100.00;100750.69;5113874;28;20028;-72
2022/06/08 05:00:07;;;;;;;14.15;8.23;;;;;;;21.69;100.00;100748.69;5113603;28;20019;-72
2022/06/08 05:02:54;;;;;;;13.18;8.32;;;;;;;21.99;100.00;100740.59;5112924;28;20051;-73
2022/06/08 05:05:41;;;;;;;9.20;7.53;;;;;;;22.15;100.00;100746.69;5114254;28;20042;-72
2022/06/08 05:08:27;;;;;;;11.02;7.13;;;;;;;21.61;100.00;100742.13;5114172;28;20023;-72
2022/06/08 05:11:14;;;;;;;11.30;7.15;;;;;;;21.84;100.00;100746.91;5114180;28;20451;-73
2022/06/08 05:13:59;;;;;;;8.02;6.70;;;;;;;21.92;100.00;100747.28;5113813;28;20027;-72
2022/06/08 05:16:45;;;;;;;12.48;6.38;;;;;;;22.33;100.00;100753.47;5113943;28;20034;-72
2022/06/08 05:19:31;;;;;;;13.18;5.80;;;;;;;22.39;100.00;100756.59;5113958;28;20020;-73
2022/06/08 05:22:17;;;;;;;11.70;5.68;;;;;;;22.67;100.00;100758.38;5113921;28;20032;-72
2022/06/08 05:25:05;;;;;;;7.55;4.90;;;;;;;22.40;100.00;100763.69;5113406;28;20050;-72
2022/06/08 05:27:51;;;;;;;7.68;5.18;;;;;;;22.35;100.00;100746.25;5114011;28;20169;-74
2022/06/08 05:30:37;;;;;;;10.07;5.05;;;;;;;22.24;100.00;100749.63;5113473;28;20053;-72
2022/06/08 05:33:24;;;;;;;8.00;4.70;;;;;;;21.92;100.00;100756.16;5116295;28;20092;-71
2022/06/08 05:36:10;;;;;;;8.30;4.65;;;;;;;22.21;100.00;100763.16;5119105;28;20474;-72
2022/06/08 05:38:56;;;;;;;11.05;4.90;;;;;;;22.31;100.00;100758.06;5117344;28;20110;-72
2022/06/08 05:41:42;;;;;;;13.63;9.13;;;;;;;22.35;100.00;100756.91;5104401;28;20055;-72
2022/06/08 05:44:27;;;;;;;6.60;4.88;;;;;;;22.37;100.00;100746.97;5117525;28;20372;-73
2022/06/08 05:47:13;;;;;;;6.40;5.20;;;;;;;22.92;100.00;100753.94;5118761;28;20040;-72
2022/06/08 05:49:59;;;;;;;6.15;4.15;;;;;;;22.89;100.00;100758.63;5118012;28;20402;-73
2022/06/08 05:52:46;;;;;;;8.15;4.40;;;;;;;22.88;100.00;100765.81;5118151;28;20037;-72
2022/06/08 05:55:33;;;;;;;6.35;4.65;;;;;;;23.10;100.00;100768.72;5117484;28;20025;-73
2022/06/08 05:58:18;;;;;;;6.93;4.05;;;;;;;22.95;100.00;100768.91;5117686;28;20463;-73
2022/06/08 06:01:04;;;;;;;7.13;4.18;;;;;;;22.94;100.00;100759.16;5117039;28;20032;-73
2022/06/08 06:03:53;;;;;;;8.10;4.47;;;;;;;23.19;100.00;100768.09;5117327;28;20114;-73
2022/06/08 06:06:43;;;;;;;7.20;4.50;;;;;;;22.80;100.00;100761.94;5117185;28;20034;-73
2022/06/08 06:09:29;;;;;;;12.07;4.07;;;;;;;22.82;100.00;100771.53;5103532;28;20027;-72
2022/06/08 06:12:15;;;;;;;7.25;4.10;;;;;;;22.87;100.00;100769.41;5108833;28;20028;-71
2022/06/08 06:15:02;;;;;;;8.38;4.10;;;;;;;23.18;100.00;100766.38;5103092;28;20027;-73
2022/06/08 06:17:48;;;;;;;5.25;4.25;;;;;;;22.95;100.00;100759.06;5104681;28;20103;-69
2022/06/08 06:20:34;;;;;;;6.47;4.60;;;;;;;22.93;100.00;100758.34;5105497;28;20073;-70
2022/06/08 06:23:20;;;;;;;5.80;4.07;;;;;;;23.03;100.00;100763.91;5103833;28;20035;-70
2022/06/08 06:26:06;;;;;;;6.40;4.10;;;;;;;22.92;100.00;100771.78;5104068;28;20460;-70
2022/06/08 06:28:52;;;;;;;25.25;17.40;;;;;;;23.07;100.00;100758.22;5105575;28;20035;-71
2022/06/08 06:31:54;;;;;;;7.70;4.43;;;;;;;23.48;100.00;100763.44;5104996;28;20337;-70
2022/06/08 06:34:40;;;;;;;5.50;4.20;;;;;;;23.71;100.00;100756.47;5104055;28;20023;-70
2022/06/08 06:37:28;;;;;;;7.68;5.07;;;;;;;23.41;100.00;100762.16;5104438;28;20043;-71
2022/06/08 06:40:14;;;;;;;8.00;5.05;;;;;;;23.71;100.00;100761.84;5104807;28;20023;-70
2022/06/08 06:43:01;;;;;;;8.55;5.85;;;;;;;23.56;100.00;100753.06;5105696;28;20313;-71
2022/06/08 06:45:46;;;;;;;10.00;5.50;;;;;;;23.41;100.00;100748.78;5102391;28;20059;-70
2022/06/08 06:48:32;;;;;;;11.40;7.95;;;;;;;23.26;100.00;100755.19;5106176;28;20444;-71
2022/06/08 06:51:19;;;;;;;7.35;5.63;;;;;;;23.42;100.00;100746.97;5103306;28;20040;-70
2022/06/08 06:54:08;;;;;;;26.60;7.70;;;;;;;23.79;100.00;100748.78;5105115;28;20027;-70
2022/06/08 06:56:53;;;;;;;9.05;7.20;;;;;;;23.45;100.00;100744.94;5103609;28;20348;-70
2022/06/08 06:59:39;;;;;;;14.15;7.53;;;;;;;23.71;100.00;100737.75;5103913;28;20031;-70
2022/06/08 07:02:26;;;;;;;10.10;6.53;;;;;;;23.89;100.00;100742.66;5105903;28;20031;-69
2022/06/08 07:05:20;;;;;;;10.63;7.68;;;;;;;24.14;100.00;100745.28;5103537;28;20371;-71
2022/06/08 07:08:07;;;;;;;11.35;7.32;;;;;;;24.49;100.00;100742.69;5105059;28;20024;-70
2022/06/08 07:13:59;;;;;;;7.47;6.05;;;;;;;23.90;100.00;100732.81;5105239;28;20349;-71
2022/06/08 07:16:47;;;;;;;9.68;5.97;;;;;;;24.01;100.00;100743.59;5102030;28;20432;-71
2022/06/08 07:19:33;;;;;;;10.45;8.65;;;;;;;24.20;100.00;100736.81;5103292;28;20439;-71
2022/06/08 07:22:19;;;;;;;6.70;3.95;;;;;;;24.56;100.00;100730.56;5104887;28;20039;-71
2022/06/08 07:25:07;;;;;;;7.82;4.32;;;;;;;24.64;100.00;100729.06;5105069;28;20109;-70
2022/06/08 07:27:53;;;;;;;10.73;4.25;;;;;;;25.21;100.00;100729.09;5104027;28;20038;-71
2022/06/08 07:30:39;;;;;;;5.68;3.55;;;;;;;25.01;100.00;100732.47;5104986;28;20096;-72
2022/06/08 07:33:25;;;;;;;7.22;3.40;;;;;;;24.85;100.00;100740.84;5106675;28;20028;-72
2022/06/08 07:36:11;;;;;;;5.85;3.47;;;;;;;25.11;100.00;100737.00;5102740;28;20028;-72
2022/06/08 07:38:57;;;;;;;9.18;4.30;;;;;;;25.86;100.00;100736.38;5106212;28;20032;-70
2022/06/08 07:41:46;;;;;;;6.55;4.13;;;;;;;26.15;100.00;100734.91;5104395;28;20103;-71
2022/06/08 07:44:35;;;;;;;8.32;4.35;;;;;;;25.92;100.00;100732.34;5103927;28;20032;-74
2022/06/08 07:47:21;;;;;;;4.65;3.80;;;;;;;26.28;100.00;100742.84;5103203;28;20051;-71
2022/06/08 07:50:09;;;;;;;9.18;3.95;;;;;;;26.13;100.00;100744.06;5103411;28;20031;-72
2022/06/08 07:52:55;;;;;;;7.07;3.42;;;;;;;26.20;100.00;100737.22;5103785;28;20464;-72
2022/06/08 07:55:41;;;;;;;7.18;3.58;;;;;;;26.04;100.00;100731.41;5103056;28;20470;-72
2022/06/08 07:58:27;;;;;;;5.43;3.55;;;;;;;25.88;100.00;100731.72;5105409;28;20139;-72
2022/06/08 08:01:13;;;;;;;6.57;3.80;;;;;;;26.31;100.00;100739.88;5105635;28;20500;-73
2022/06/08 08:04:01;;;;;;;4.40;3.53;;;;;;;25.94;100.00;100727.72;5106834;28;20031;-71
2022/06/08 08:06:47;;;;;;;6.13;3.65;;;;;;;26.06;100.00;100740.16;5087755;28;20037;-71
2022/06/08 08:09:44;;;;;;;6.78;3.90;;;;;;;26.19;100.00;100739.06;5098629;28;20032;-72
2022/06/08 08:12:29;;;;;;;4.38;3.58;;;;;;;26.38;100.00;100725.81;5104945;28;20031;-72
2022/06/08 08:15:17;;;;;;;7.25;3.63;;;;;;;27.21;100.00;100727.69;5103643;28;20034;-73
2022/06/08 08:18:03;;;;;;;5.40;3.60;;;;;;;26.56;100.00;100732.34;5104668;28;20028;-71
2022/06/08 08:20:49;;;;;;;5.35;3.60;;;;;;;27.05;100.00;100726.44;5107096;28;20369;-73
2022/06/08 08:23:38;;;;;;;8.60;5.70;;;;;;;27.25;100.00;100730.97;5103213;28;20103;-72
2022/06/08 08:26:24;;;;;;;8.55;7.38;;;;;;;27.05;100.00;100729.94;5110306;28;20717;-74
2022/06/08 08:29:10;;;;;;;6.00;3.65;;;;;;;26.61;100.00;100722.09;5108618;28;20357;-74
2022/06/08 08:31:56;;;;;;;5.72;4.03;;;;;;;26.93;100.00;100722.09;5106948;28;20031;-73
2022/06/08 08:34:41;;;;;;;7.35;4.18;;;;;;;27.10;100.00;100724.19;5106859;28;20024;-72
2022/06/08 08:37:28;;;;;;;6.22;3.78;;;;;;;26.58;100.00;100722.38;5097554;28;20050;-74
2022/06/08 08:40:35;;;;;;;10.13;4.38;;;;;;;26.37;100.00;100718.72;5106221;28;20034;-72
2022/06/08 08:43:28;;;;;;;5.10;3.90;;;;;;;27.39;100.00;100717.16;5104435;28;20040;-72
2022/06/08 08:46:55;;;;;;;7.07;4.03;;;;;;;28.35;99.19;100713.00;5105640;28;20027;-72
2022/06/08 08:49:51;;;;;;;8.25;4.18;;;;;;;27.45;99.50;100712.09;5066371;28;20032;-72
2022/06/08 08:52:44;;;;;;;4.90;3.55;;;;;;;27.88;98.09;100713.75;5101729;28;20089;-73
2022/06/08 08:55:45;;;;;;;5.05;3.88;;;;;;;27.83;98.97;100713.28;5083902;28;20036;-72
2022/06/08 08:58:38;;;;;;;11.43;4.68;;;;;;;27.68;100.00;100712.78;5105228;28;20037;-73
2022/06/08 09:01:28;;;;;;;8.23;4.50;;;;;;;27.17;100.00;100722.69;5087957;28;20035;-72
2022/06/08 09:04:32;;;;;;;11.68;9.73;;;;;;;27.26;100.00;100719.22;5102581;28;20030;-72
2022/06/08 09:07:20;;;;;;;13.32;5.25;;;;;;;26.28;100.00;100724.84;5101942;28;20031;-73
2022/06/08 09:10:10;;;;;;;8.50;4.53;;;;;;;25.25;100.00;100723.38;5091356;28;20096;-72
2022/06/08 09:12:56;;;;;;;7.97;5.32;;;;;;;25.73;100.00;100721.38;5091621;28;20031;-73
2022/06/08 09:15:57;;;;;;;5.93;4.30;;;;;;;25.78;100.00;100719.16;5107256;28;20027;-74
2022/06/08 09:18:42;;;;;;;8.60;4.40;;;;;;;25.37;100.00;100725.16;5095089;28;20035;-73
2022/06/08 09:21:35;;;;;;;7.97;4.63;;;;;;;26.03;100.00;100725.16;5113157;28;20531;-75
2022/06/08 09:24:28;;;;;;;9.55;4.70;;;;;;;25.96;100.00;100718.56;5102761;28;20040;-76
2022/06/08 09:27:23;;;;;;;10.88;4.63;;;;;;;25.58;100.00;100727.94;5108641;28;20108;-74
2022/06/08 09:30:15;;;;;;;14.10;5.15;;;;;;;25.61;100.00;100722.34;5107242;28;20023;-74
2022/06/08 09:33:47;;;;;;;8.38;4.40;;;;;;;25.92;100.00;100727.81;5108983;28;20493;-74
2022/06/08 09:36:33;;;;;;;10.25;6.20;;;;;;;25.15;100.00;100719.69;5091718;28;20040;-75
2022/06/08 09:39:21;;;;;;;43.70;27.50;;;;;;;24.79;100.00;100708.28;5105672;28;20401;-74
2022/06/08 09:42:29;;;;;;;13.15;6.13;;;;;;;25.43;100.00;100703.19;5106531;28;20055;-73
2022/06/08 09:45:32;;;;;;;18.55;10.52;;;;;;;25.63;100.00;100707.00;5105239;28;20035;-71
2022/06/08 09:52:27;;;;;;;11.80;5.95;;;;;;;25.78;100.00;100701.25;5105757;28;20027;-71
2022/06/08 09:55:20;;;;;;;7.45;4.65;;;;;;;25.67;100.00;100695.00;5081191;28;20471;-73
2022/06/08 09:58:25;;;;;;;9.00;4.30;;;;;;;25.52;100.00;100698.94;5108051;28;20451;-74
2022/06/08 10:01:23;;;;;;;9.05;5.50;;;;;;;25.02;100.00;100692.13;5105833;28;20318;-72
2022/06/08 10:04:27;;;;;;;7.40;4.50;;;;;;;25.49;100.00;100694.66;5091430;28;20020;-72
2022/06/08 10:07:27;;;;;;;5.68;3.83;;;;;;;25.92;100.00;100689.41;5088724;28;20424;-71
2022/06/08 10:10:41;;;;;;;7.15;4.20;;;;;;;25.83;100.00;100676.69;5106450;28;20459;-72
2022/06/08 10:13:39;;;;;;;6.95;4.15;;;;;;;25.69;100.00;100676.97;5106205;28;20059;-73
2022/06/08 10:16:28;;;;;;;5.88;4.00;;;;;;;25.68;100.00;100675.28;5104273;28;20039;-72
2022/06/08 10:19:34;;;;;;;10.93;4.00;;;;;;;26.66;100.00;100674.19;5105684;28;20020;-72
2022/06/08 10:22:49;;;;;;;8.98;4.05;;;;;;;26.81;100.00;100664.81;5077073;28;20033;-73
2022/06/08 10:25:41;;;;;;;5.70;4.10;;;;;;;26.26;100.00;100662.34;5060351;28;20052;-73
2022/06/08 10:29:16;;;;;;;7.93;3.67;;;;;;;27.19;100.00;100657.00;5076438;28;20131;-72
2022/06/08 10:32:09;;;;;;;6.85;3.60;;;;;;;26.59;100.00;100674.81;5053883;28;20050;-72
2022/06/08 10:34:55;;;;;;;6.97;3.90;;;;;;;27.00;100.00;100667.63;5089254;28;20036;-71
2022/06/08 10:37:42;;;;;;;5.78;3.78;;;;;;;26.68;100.00;100666.84;5089744;28;20024;-72
2022/06/08 10:40:45;;;;;;;8.13;3.58;;;;;;;27.00;100.00;100659.56;5071724;28;20043;-72
2022/06/08 10:43:34;;;;;;;9.60;3.50;;;;;;;27.03;100.00;100651.25;5090115;28;20834;-71
2022/06/08 10:46:45;;;;;;;9.27;3.47;;;;;;;26.99;100.00;100647.09;5071959;28;20093;-77
2022/06/08 10:49:30;;;;;;;4.57;3.30;;;;;;;27.25;100.00;100643.03;5094820;28;20078;-77
2022/06/08 10:52:19;;;;;;;9.77;3.45;;;;;;;27.26;100.00;100633.13;5081266;28;20024;-78
2022/06/08 10:55:17;;;;;;;5.35;3.28;;;;;;;28.93;94.71;100637.38;5080582;28;20082;-76
2022/06/08 10:58:15;;;;;;;4.82;3.40;;;;;;;28.08;95.93;100638.22;5087784;28;20059;-75
2022/06/08 11:01:05;;;;;;;4.50;3.05;;;;;;;27.74;94.15;100626.09;5087241;28;20414;-75
2022/06/08 11:03:54;;;;;;;10.23;3.20;;;;;;;28.44;93.14;100623.25;5095722;28;20088;-76
2022/06/08 11:06:53;;;;;;;2.50;2.08;;;;;;;28.56;81.33;100620.25;5093907;28;20039;-75
2022/06/08 11:09:43;;;;;;;6.03;2.33;;;;;;;28.24;72.95;100622.34;5095278;28;20032;-75
2022/06/08 11:12:35;;;;;;;6.43;2.40;;;;;;;28.52;75.38;100616.13;5089826;28;20038;-72
2022/06/08 11:15:32;;;;;;;5.20;2.35;;;;;;;28.61;71.62;100601.78;5089645;28;20031;-71
2022/06/08 11:18:46;;;;;;;5.57;2.60;;;;;;;28.93;73.22;100596.91;5088899;28;20089;-72
2022/06/08 11:21:54;;;;;;;6.18;3.10;;;;;;;29.24;73.24;100597.53;5087884;28;20344;-73
2022/06/08 11:24:46;;;;;;;5.90;2.40;;;;;;;29.27;72.47;100598.09;5088932;28;20055;-73
2022/06/08 11:27:35;;;;;;;3.05;2.40;;;;;;;29.23;71.86;100602.09;5091453;28;20089;-73
2022/06/08 11:30:20;;;;;;;7.07;2.67;;;;;;;28.36;77.14;100599.66;5091757;28;20036;-72
2022/06/08 11:33:17;;;;;;;4.78;2.47;;;;;;;28.30;79.56;100588.59;5089175;28;20035;-72
2022/06/08 11:36:21;;;;;;;5.15;2.63;;;;;;;28.64;80.88;100588.03;5088306;28;20031;-73
2022/06/08 11:39:40;;;;;;;3.40;2.60;;;;;;;28.04;86.08;100592.88;5088733;28;20407;-73
2022/06/08 11:42:51;;;;;;;3.88;2.63;;;;;;;27.70;83.35;100597.72;5088716;28;20039;-71
2022/06/08 11:45:44;;;;;;;7.97;2.97;;;;;;;27.06;85.58;100589.13;5086746;28;20028;-73
2022/06/08 11:48:49;;;;;;;8.35;2.97;;;;;;;27.12;86.21;100595.78;5095027;28;20248;-70
2022/06/08 11:51:41;;;;;;;6.53;2.67;;;;;;;27.21;80.14;100584.25;5093067;28;20047;-72
2022/06/08 11:54:32;;;;;;;6.30;2.63;;;;;;;27.32;79.57;100593.06;5068388;28;20036;-69
2022/06/08 11:57:20;;;;;;;5.80;2.33;;;;;;;26.83;77.44;100590.25;5088222;28;20464;-71
2022/06/08 12:00:15;;;;;;;2.83;2.10;;;;;;;26.96;72.49;100582.81;5088184;28;20089;-71
2022/06/08 12:03:05;;;;;;;3.97;2.10;;;;;;;27.48;70.16;100584.47;5089611;28;20101;-70
2022/06/08 12:06:00;;;;;;;3.58;2.30;;;;;;;28.22;67.48;100580.38;5089736;28;20036;-71
2022/06/08 12:08:54;;;;;;;3.47;2.10;;;;;;;28.33;66.48;100578.38;5084489;28;20115;-71
2022/06/08 12:11:44;;;;;;;3.20;2.10;;;;;;;29.15;63.59;100576.84;5087721;27;20097;-74
2022/06/08 12:14:34;;;;;;;6.05;2.40;;;;;;;29.11;64.11;100575.44;5086971;28;20035;-75
2022/06/08 12:17:31;;;;;;;10.80;4.85;;;;;;;28.81;65.37;100589.13;5089718;28;20024;-75
2022/06/08 12:20:43;;;;;;;15.30;8.93;;;;;;;28.84;62.76;100584.28;5086009;28;20024;-73
2022/06/08 12:24:13;;;;;;;5.32;2.70;;;;;;;28.46;68.24;100576.28;5091485;28;20530;-73
2022/06/08 12:27:14;;;;;;;7.28;2.65;;;;;;;28.48;65.70;100578.84;5040675;28;20091;-73
2022/06/08 12:30:00;;;;;;;5.53;2.45;;;;;;;28.67;65.65;100574.25;5088704;28;20128;-74
2022/06/08 12:33:18;;;;;;;5.22;2.30;;;;;;;28.04;68.15;100565.91;5102802;28;20516;-74
2022/06/08 12:36:26;;;;;;;22.40;3.60;;;;;;;27.87;69.41;100574.66;5067902;28;20458;-73
2022/06/08 12:39:15;;;;;;;11.80;2.70;;;;;;;28.14;66.67;100574.84;5103712;28;20023;-75
2022/06/08 12:42:01;;;;;;;4.70;2.20;;;;;;;28.31;61.20;100580.38;5087520;28;20180;-74
2022/06/08 12:44:52;;;;;;;3.05;1.90;;;;;;;28.59;57.67;100571.44;5102359;28;20019;-74
2022/06/08 12:47:43;;;;;;;5.63;2.25;;;;;;;28.88;54.24;100569.50;5096071;28;20027;-74
2022/06/08 12:50:30;;;;;;;6.80;2.10;;;;;;;28.92;56.08;100572.75;5088267;28;20027;-73
2022/06/08 12:53:16;;;;;;;5.03;2.30;;;;;;;28.80;56.89;100571.25;5104398;28;20133;-74
2022/06/08 12:56:02;;;;;;;7.47;2.90;;;;;;;29.45;55.79;100568.47;5103251;28;20027;-74
2022/06/08 12:58:48;;;;;;;5.18;2.40;;;;;;;28.93;55.50;100578.00;5103670;28;20031;-75
2022/06/08 13:01:39;;;;;;;7.80;2.20;;;;;;;28.88;56.50;100583.00;5098169;28;20034;-76
2022/06/08 13:04:24;;;;;;;8.40;1.92;;;;;;;29.04;55.85;100574.31;5095427;28;20356;-74
2022/06/08 13:07:18;;;;;;;2.88;2.17;;;;;;;27.83;56.01;100579.50;5087825;28;20032;-70
2022/06/08 13:10:04;;;;;;;2.60;1.70;;;;;;;27.39;55.38;100575.41;5088650;28;20075;-71
2022/06/08 13:12:54;;;;;;;4.43;2.15;;;;;;;27.63;54.18;100574.16;5088416;28;20028;-70
2022/06/08 13:15:40;;;;;;;3.20;2.15;;;;;;;27.39;52.68;100578.09;5082113;28;20027;-71
2022/06/08 13:18:28;;;;;;;4.57;2.03;;;;;;;27.58;54.26;100565.66;5102732;28;20062;-70